Time;durP1;ratioP1;P1;durP2;ratioP2;P2;SDS_P1;SDS_P2;PMS_P1;PMS_P2;Temp;Humidity;BMP_temperature;BMP_pressure;BME280_temperature;BME280_humidity;BME280_pressure;Samples;Min_cycle;Max_cycle;Signal;HPM_P1;HPM_P2
2022/01/29 00:00:11;;;;;;;;;35.00;32.00;;;;;8.04;67.43;102758.28;4995720;28;45524;-60
2022/01/29 00:02:37;;;;;;;;;39.50;31.25;;;;;8.05;67.42;102757.38;4995602;28;45333;-62
2022/01/29 00:05:02;;;;;;;;;33.25;32.00;;;;;8.04;67.45;102748.63;4996942;28;45465;-64
2022/01/29 00:07:28;;;;;;;;;29.25;24.75;;;;;8.04;67.55;102750.44;4996076;28;45244;-63
2022/01/29 00:10:00;;;;;;;;;34.25;28.50;;;;;8.02;67.90;102746.09;4995988;28;62448;-62
2022/01/29 00:12:26;;;;;;;;;29.00;23.75;;;;;8.04;67.58;102750.44;4979525;28;45392;-61
2022/01/29 00:14:51;;;;;;;;;33.50;28.75;;;;;8.06;67.49;102748.59;4995733;28;66830;-61
2022/01/29 00:17:17;;;;;;;;;25.00;22.00;;;;;8.06;67.41;102743.34;4995561;28;72832;-60
2022/01/29 00:19:42;;;;;;;;;24.75;21.00;;;;;8.07;67.49;102737.19;4996472;28;45291;-60
2022/01/29 00:22:07;;;;;;;;;25.00;20.75;;;;;8.08;67.26;102742.34;4996647;28;45235;-61
2022/01/29 00:24:33;;;;;;;;;31.25;23.50;;;;;8.08;67.27;102729.25;4996568;28;45333;-63
2022/01/29 00:27:02;;;;;;;;;23.75;22.75;;;;;8.08;67.25;102724.03;4996487;28;45499;-62
2022/01/29 00:29:27;;;;;;;;;36.75;31.50;;;;;8.09;67.23;102728.34;4996446;28;45863;-61
2022/01/29 00:31:53;;;;;;;;;39.00;34.25;;;;;8.07;67.30;102724.94;4996604;28;45285;-62
2022/01/29 00:34:18;;;;;;;;;29.00;23.00;;;;;8.07;67.33;102722.31;4995538;28;69970;-61
2022/01/29 00:36:43;;;;;;;;;23.75;21.00;;;;;8.08;67.26;102716.19;4996326;28;45441;-60
2022/01/29 00:39:09;;;;;;;;;28.00;22.50;;;;;8.08;67.39;102713.56;4996233;28;45228;-63
2022/01/29 00:41:34;;;;;;;;;26.25;21.75;;;;;8.08;66.95;102710.09;4995620;28;61771;-61
2022/01/29 00:43:59;;;;;;;;;22.75;22.50;;;;;8.08;67.28;102718.78;4995266;28;70077;-62
2022/01/29 00:46:25;;;;;;;;;31.75;24.50;;;;;8.09;67.26;102706.56;4995241;28;71166;-61
2022/01/29 00:48:50;;;;;;;;;31.75;26.75;;;;;8.07;67.20;102698.75;4995128;28;73419;-60
2022/01/29 00:51:16;;;;;;;;;27.25;24.75;;;;;8.06;67.16;102689.22;4995327;28;68842;-61
2022/01/29 00:53:41;;;;;;;;;29.00;22.25;;;;;8.05;67.23;102687.50;4978474;28;45635;-62
2022/01/29 00:56:09;;;;;;;;;22.50;20.50;;;;;8.06;67.39;102685.75;4995197;28;67725;-60
2022/01/29 00:58:34;;;;;;;;;27.00;22.00;;;;;8.06;67.28;102676.13;4995556;28;45430;-61
2022/01/29 01:01:00;;;;;;;;;21.75;21.75;;;;;8.07;67.34;102676.97;4996292;28;45337;-62
2022/01/29 01:03:25;;;;;;;;;23.00;18.75;;;;;8.07;67.40;102671.75;4996101;28;45385;-61
2022/01/29 01:05:50;;;;;;;;;16.75;15.00;;;;;8.08;66.80;102673.44;4995948;28;45479;-60
2022/01/29 01:08:16;;;;;;;;;31.25;20.00;;;;;8.08;67.16;102668.22;4977731;28;63109;-61
2022/01/29 01:10:41;;;;;;;;;20.75;19.75;;;;;8.08;67.18;102676.06;4995269;28;62076;-62
2022/01/29 01:13:07;;;;;;;;;20.25;16.25;;;;;8.08;67.31;102669.03;4998328;28;61750;-63
2022/01/29 01:15:32;;;;;;;;;22.25;19.00;;;;;8.10;67.03;102671.63;4998437;28;63587;-61
2022/01/29 01:17:57;;;;;;;;;19.75;16.00;;;;;8.11;67.18;102668.09;4998456;28;65471;-61
2022/01/29 01:20:23;;;;;;;;;17.50;17.50;;;;;8.10;67.30;102675.06;4998636;28;59202;-60
2022/01/29 01:22:48;;;;;;;;;20.00;17.25;;;;;8.11;67.43;102674.16;4981706;28;45259;-61
2022/01/29 01:25:13;;;;;;;;;20.50;14.25;;;;;8.11;67.45;102676.78;4998063;28;67370;-61
2022/01/29 01:27:42;;;;;;;;;21.75;21.00;;;;;8.11;67.51;102671.53;4998175;28;63473;-61
2022/01/29 01:30:08;;;;;;;;;27.25;20.50;;;;;8.12;67.40;102675.84;4999041;28;45223;-62
2022/01/29 01:32:33;;;;;;;;;26.75;19.25;;;;;8.12;67.44;102672.41;4998867;28;45164;-61
2022/01/29 01:35:09;;;;;;;;;23.00;21.50;;;;;8.11;67.60;102682.00;4981004;28;46511;-61
2022/01/29 01:37:46;;;;;;;;;26.75;19.25;;;;;8.12;67.56;102675.03;4980620;28;45279;-60
2022/01/29 01:40:12;;;;;;;;;21.00;17.00;;;;;8.10;67.67;102679.47;4981156;28;45341;-60
2022/01/29 01:42:38;;;;;;;;;18.00;18.00;;;;;8.09;67.97;102675.97;4964610;28;45409;-62
2022/01/29 01:45:04;;;;;;;;;22.75;19.00;;;;;8.09;67.86;102670.75;4998188;28;46430;-61
2022/01/29 01:47:29;;;;;;;;;23.75;20.00;;;;;8.07;68.04;102658.66;4998421;28;46024;-63
2022/01/29 01:49:54;;;;;;;;;22.00;17.50;;;;;8.07;68.28;102663.91;4997837;28;61737;-62
2022/01/29 01:52:20;;;;;;;;;23.75;19.75;;;;;8.04;68.59;102653.56;4997190;28;69337;-61
2022/01/29 01:54:45;;;;;;;;;22.50;19.75;;;;;8.02;68.89;102656.22;4998267;28;45407;-63
2022/01/29 01:57:11;;;;;;;;;22.25;21.25;;;;;8.02;69.11;102658.84;4998177;28;49105;-62
2022/01/29 01:59:36;;;;;;;;;25.25;21.75;;;;;8.01;69.16;102659.75;4980767;28;45406;-63
2022/01/29 02:02:02;;;;;;;;;24.00;19.50;;;;;7.99;69.37;102653.72;4997461;28;64077;-61
2022/01/29 02:04:27;;;;;;;;;20.50;19.75;;;;;7.97;69.59;102651.19;4998041;28;50394;-60
2022/01/29 02:06:53;;;;;;;;;21.50;20.25;;;;;7.96;69.45;102649.50;4998149;28;45281;-63
2022/01/29 02:09:21;;;;;;;;;24.00;19.25;;;;;7.96;69.58;102649.50;4998088;28;45354;-62
2022/01/29 02:11:53;;;;;;;;;22.00;18.25;;;;;7.96;69.93;102653.88;4980954;28;45343;-61
2022/01/29 02:14:19;;;;;;;;;23.00;16.50;;;;;7.97;70.02;102652.94;4979858;28;45458;-60
2022/01/29 02:16:45;;;;;;;;;21.50;18.50;;;;;7.96;70.12;102649.50;4998091;28;45372;-61
2022/01/29 02:19:10;;;;;;;;;17.50;15.00;;;;;7.96;70.27;102646.00;4998467;28;45412;-60
2022/01/29 02:21:36;;;;;;;;;23.00;20.00;;;;;7.95;70.16;102626.03;4979720;28;67651;-61
2022/01/29 02:24:02;;;;;;;;;20.25;18.75;;;;;7.96;70.23;102635.53;4996901;28;47720;-62
2022/01/29 02:26:27;;;;;;;;;22.50;21.25;;;;;7.97;70.20;102629.38;4997489;28;60273;-61
2022/01/29 02:28:54;;;;;;;;;21.25;17.25;;;;;7.95;70.21;102624.22;4979601;28;64443;-61
2022/01/29 02:31:19;;;;;;;;;18.50;14.50;;;;;7.95;70.42;102624.22;4980551;28;45664;-61
2022/01/29 02:33:45;;;;;;;;;19.25;18.75;;;;;7.96;70.66;102611.97;4996834;28;68647;-62
2022/01/29 02:36:10;;;;;;;;;19.00;14.50;;;;;7.94;70.50;102606.00;4997176;28;65700;-60
2022/01/29 02:38:36;;;;;;;;;19.50;16.50;;;;;7.94;70.47;102606.00;4997897;28;45353;-62
2022/01/29 02:41:04;;;;;;;;;23.00;17.75;;;;;7.93;70.56;102599.06;4997082;28;62245;-62
2022/01/29 02:43:46;;;;;;;;;21.25;18.25;;;;;7.92;70.58;102595.56;4997493;28;47512;-62
2022/01/29 02:48:46;;;;;;;;;22.00;15.25;;;;;7.90;70.92;102592.16;4997641;28;45429;-60
2022/01/29 02:51:12;;;;;;;;;19.50;16.50;;;;;7.90;71.07;102586.09;4997514;28;45299;-61
2022/01/29 02:53:37;;;;;;;;;22.00;19.00;;;;;7.89;71.19;102580.00;4996814;28;57598;-60
2022/01/29 02:56:03;;;;;;;;;20.25;16.00;;;;;7.87;71.20;102580.09;4996253;28;73173;-61
2022/01/29 02:58:29;;;;;;;;;18.75;16.50;;;;;7.87;71.37;102580.09;4979989;28;45332;-61
2022/01/29 03:00:55;;;;;;;;;27.25;20.75;;;;;7.88;71.37;102575.69;4997497;28;45509;-61
2022/01/29 03:03:20;;;;;;;;;22.00;18.75;;;;;7.87;71.52;102574.00;4997180;28;46627;-61
2022/01/29 03:05:46;;;;;;;;;22.50;15.50;;;;;7.86;71.56;102567.91;4996611;28;66057;-61
2022/01/29 03:08:11;;;;;;;;;19.25;18.50;;;;;7.87;71.46;102572.22;4997479;28;45370;-61
2022/01/29 03:10:36;;;;;;;;;21.00;18.50;;;;;7.87;71.66;102564.38;4996924;28;51965;-60
2022/01/29 03:13:02;;;;;;;;;20.25;17.50;;;;;7.85;71.68;102563.59;4996421;28;67760;-62
2022/01/29 03:15:27;;;;;;;;;21.75;18.50;;;;;7.84;71.61;102556.66;4996503;28;58903;-61
2022/01/29 03:17:53;;;;;;;;;32.25;20.50;;;;;7.86;71.81;102553.97;4996485;28;61216;-61
2022/01/29 03:20:18;;;;;;;;;28.25;24.25;;;;;7.86;71.60;102560.06;4997232;28;45566;-60
2022/01/29 03:22:43;;;;;;;;;22.50;20.25;;;;;7.86;71.85;102562.69;4997073;28;45310;-61
2022/01/29 03:25:09;;;;;;;;;21.00;20.00;;;;;7.89;71.75;102563.47;4996155;28;67815;-60
2022/01/29 03:27:34;;;;;;;;;24.00;24.00;;;;;7.87;71.82;102559.16;4996861;28;47606;-61
2022/01/29 03:29:59;;;;;;;;;25.00;19.25;;;;;7.88;71.45;102565.22;4996051;28;68731;-63
2022/01/29 03:32:25;;;;;;;;;17.00;16.00;;;;;7.89;71.78;102561.69;4996733;28;46603;-61
2022/01/29 03:34:50;;;;;;;;;21.50;19.25;;;;;7.86;71.91;102570.53;4995674;28;69107;-62
2022/01/29 03:37:16;;;;;;;;;21.75;18.75;;;;;7.85;72.05;102567.97;4996914;28;45243;-61
2022/01/29 03:39:43;;;;;;;;;21.00;15.50;;;;;7.85;72.08;102566.22;4996894;28;45230;-61
2022/01/29 03:42:10;;;;;;;;;20.50;18.00;;;;;7.85;72.17;102566.22;4996634;28;45565;-60
2022/01/29 03:44:35;;;;;;;;;18.25;15.25;;;;;7.85;72.45;102562.72;4996717;28;45405;-62
2022/01/29 03:47:01;;;;;;;;;18.75;18.00;;;;;7.85;72.36;102563.59;4996745;28;45411;-60
2022/01/29 03:49:26;;;;;;;;;22.25;19.25;;;;;7.86;72.42;102560.06;4995836;28;61076;-61
2022/01/29 03:51:51;;;;;;;;;26.25;20.00;;;;;7.89;72.21;102563.47;4995900;28;69259;-60
2022/01/29 03:54:17;;;;;;;;;20.75;19.75;;;;;7.87;72.28;102563.50;4995418;28;67284;-61
2022/01/29 03:56:42;;;;;;;;;25.00;15.75;;;;;7.86;72.44;102561.81;4995989;28;59455;-61
2022/01/29 03:59:07;;;;;;;;;21.75;16.75;;;;;7.87;72.30;102561.75;4996033;28;58495;-61
2022/01/29 04:01:33;;;;;;;;;24.75;18.50;;;;;7.86;72.36;102554.81;4995775;28;65030;-63
2022/01/29 04:03:58;;;;;;;;;18.75;16.00;;;;;7.86;72.42;102546.13;4995642;28;67376;-61
2022/01/29 04:06:24;;;;;;;;;16.50;14.00;;;;;7.86;72.40;102557.44;4996607;28;45181;-62
2022/01/29 04:08:50;;;;;;;;;18.75;16.25;;;;;7.84;72.41;102556.66;4996492;28;45357;-62
2022/01/29 04:11:15;;;;;;;;;18.75;14.25;;;;;7.85;72.58;102550.50;4977284;28;68687;-61
2022/01/29 04:13:46;;;;;;;;;19.50;14.75;;;;;7.85;72.69;102554.88;4996373;28;45380;-60
2022/01/29 04:16:12;;;;;;;;;19.75;16.75;;;;;7.86;72.53;102546.13;4996546;28;45406;-61
2022/01/29 04:18:38;;;;;;;;;20.00;16.25;;;;;7.86;72.88;102546.97;4996460;28;45714;-62
2022/01/29 04:21:03;;;;;;;;;19.75;16.00;;;;;7.86;72.65;102541.75;4995469;28;66635;-61
2022/01/29 04:23:29;;;;;;;;;20.00;18.25;;;;;7.87;72.75;102551.28;4996173;28;45387;-61
2022/01/29 04:25:54;;;;;;;;;18.50;14.25;;;;;7.88;72.73;102557.38;4995858;28;49571;-62
2022/01/29 04:28:23;;;;;;;;;20.25;16.50;;;;;7.89;72.80;102547.75;4996421;28;45459;-63
2022/01/29 04:30:54;;;;;;;;;16.00;14.25;;;;;7.89;72.82;102551.22;4996056;28;47055;-62
2022/01/29 04:35:48;;;;;;;;;19.25;15.25;;;;;7.90;72.88;102554.69;4996158;28;45196;-63
2022/01/29 04:38:13;;;;;;;;;20.00;19.00;;;;;7.91;72.97;102559.00;4996200;28;45229;-61
2022/01/29 04:40:38;;;;;;;;;22.50;19.75;;;;;7.90;72.78;102554.69;4995035;28;72661;-61
2022/01/29 04:43:04;;;;;;;;;17.50;15.75;;;;;7.91;73.07;102548.53;4995819;28;47468;-61
2022/01/29 04:45:29;;;;;;;;;21.75;17.50;;;;;7.92;73.13;102545.84;4995421;28;59103;-63
2022/01/29 04:47:55;;;;;;;;;17.75;14.00;;;;;7.94;72.95;102545.78;4981266;28;45569;-60
2022/01/29 04:50:20;;;;;;;;;30.75;26.75;;;;;7.96;73.27;102536.06;4998088;28;73431;-61
2022/01/29 04:52:45;;;;;;;;;21.50;21.00;;;;;7.97;73.06;102546.47;4998213;28;68123;-62
2022/01/29 04:55:11;;;;;;;;;38.25;31.75;;;;;7.97;73.06;102540.38;4998912;28;53608;-61
2022/01/29 04:57:37;;;;;;;;;28.50;23.50;;;;;7.98;73.21;102539.47;4999279;28;45578;-63
2022/01/29 05:00:08;;;;;;;;;26.75;20.25;;;;;7.98;73.18;102542.09;4998523;28;46206;-60
2022/01/29 05:02:34;;;;;;;;;22.75;21.50;;;;;7.99;73.20;102533.31;4998990;28;45668;-61
2022/01/29 05:04:59;;;;;;;;;26.00;23.50;;;;;8.01;73.30;102531.47;4999085;28;45329;-62
2022/01/29 05:07:25;;;;;;;;;22.25;21.00;;;;;8.00;73.26;102522.78;4998362;28;66971;-61
2022/01/29 05:09:50;;;;;;;;;18.50;16.00;;;;;8.02;73.27;102517.47;4998327;28;69358;-61
2022/01/29 05:12:23;;;;;;;;;20.50;18.50;;;;;8.02;73.33;102527.94;4999254;28;45272;-61
2022/01/29 05:15:06;;;;;;;;;21.50;16.50;;;;;8.02;73.42;102527.94;4999081;28;45466;-60
2022/01/29 05:28:40;;;;;;;;;23.75;21.25;;;;;8.10;73.28;102536.28;4998970;28;45231;-61
2022/01/29 05:31:06;;;;;;;;;22.75;21.75;;;;;8.10;73.56;102536.28;4998621;28;45250;-61
2022/01/29 05:33:31;;;;;;;;;23.25;18.50;;;;;8.12;73.56;102544.94;4997810;28;69322;-61
2022/01/29 05:35:56;;;;;;;;;22.25;20.00;;;;;8.12;73.60;102544.94;4980256;28;63216;-63
2022/01/29 05:38:22;;;;;;;;;34.50;27.75;;;;;8.12;73.68;102536.25;4997566;28;63101;-61
2022/01/29 05:40:47;;;;;;;;;36.00;30.00;;;;;8.13;73.98;102532.69;4998000;28;62196;-62
2022/01/29 05:43:13;;;;;;;;;28.75;25.00;;;;;8.13;73.62;102535.31;4997629;28;70150;-62
2022/01/29 05:45:38;;;;;;;;;26.75;20.00;;;;;8.13;73.59;102533.53;4998763;28;45288;-61
2022/01/29 05:48:04;;;;;;;;;21.00;20.50;;;;;8.13;73.80;102527.47;4997876;28;59754;-62
2022/01/29 05:50:29;;;;;;;;;21.50;20.00;;;;;8.14;73.71;102527.38;4998011;28;47183;-61
2022/01/29 05:52:54;;;;;;;;;22.75;20.25;;;;;8.14;73.87;102529.16;4997769;28;56572;-62
2022/01/29 05:55:21;;;;;;;;;26.50;21.00;;;;;8.15;73.76;102525.63;4998434;28;45735;-62
2022/01/29 05:57:48;;;;;;;;;29.25;24.25;;;;;8.14;74.00;102527.38;4997435;28;45388;-61
2022/01/29 06:00:14;;;;;;;;;27.75;22.25;;;;;8.15;73.75;102521.22;4998146;28;46289;-61
2022/01/29 06:02:39;;;;;;;;;24.25;19.75;;;;;8.16;73.99;102520.31;4998437;28;45313;-61
2022/01/29 06:05:05;;;;;;;;;27.50;22.50;;;;;8.19;73.95;102523.69;4997676;28;62934;-61
2022/01/29 06:07:30;;;;;;;;;33.75;28.50;;;;;8.20;74.00;102526.25;4998211;28;45224;-62
2022/01/29 06:09:56;;;;;;;;;23.75;21.25;;;;;8.21;73.99;102521.88;4997316;28;66679;-60
2022/01/29 06:12:21;;;;;;;;;22.25;21.50;;;;;8.23;73.79;102520.03;4997542;28;62630;-61
2022/01/29 06:14:47;;;;;;;;;23.50;21.00;;;;;8.24;74.16;102521.72;4997880;28;45330;-61
2022/01/29 06:17:12;;;;;;;;;21.75;21.00;;;;;8.24;73.60;102524.34;4997903;28;50875;-61
2022/01/29 06:19:38;;;;;;;;;24.50;20.00;;;;;8.25;74.02;102526.03;4997522;28;46400;-62
2022/01/29 06:22:10;;;;;;;;;25.75;20.75;;;;;8.27;73.99;102526.81;4997966;28;45398;-61
2022/01/29 06:24:35;;;;;;;;;22.25;19.00;;;;;8.28;73.97;102523.28;4998145;28;45186;-62
2022/01/29 06:27:01;;;;;;;;;27.50;22.00;;;;;8.28;73.96;102525.91;4997359;28;61612;-62
2022/01/29 06:29:26;;;;;;;;;25.50;23.50;;;;;8.29;74.01;102527.59;4996976;28;69016;-62
2022/01/29 06:31:51;;;;;;;;;31.50;26.50;;;;;8.29;73.99;102528.44;4979455;28;69847;-61
2022/01/29 06:34:17;;;;;;;;;29.75;24.75;;;;;8.31;74.11;102533.63;4997134;28;64347;-61
2022/01/29 06:36:42;;;;;;;;;27.00;24.75;;;;;8.32;74.16;102525.66;4997278;28;56915;-62
2022/01/29 06:39:07;;;;;;;;;58.25;45.75;;;;;8.34;74.23;102525.63;4997020;28;61431;-62
2022/01/29 06:41:33;;;;;;;;;46.50;39.00;;;;;8.36;74.28;102523.78;4996885;28;63859;-61
2022/01/29 06:43:58;;;;;;;;;48.75;38.50;;;;;8.38;74.28;102526.31;4997317;28;55815;-61
2022/01/29 06:46:24;;;;;;;;;29.50;25.25;;;;;8.40;74.44;102527.09;4980086;28;45606;-61
2022/01/29 06:48:49;;;;;;;;;17.25;14.25;;;;;8.41;74.32;102521.78;4997438;28;46185;-61
2022/01/29 06:51:16;;;;;;;;;33.50;31.50;;;;;8.41;74.15;102511.31;4997455;28;45437;-61
2022/01/29 06:53:42;;;;;;;;;29.00;25.75;;;;;8.44;74.16;102513.78;4963597;28;45327;-61
2022/01/29 06:56:08;;;;;;;;;14.75;14.75;;;;;8.45;74.58;102510.25;4996784;28;62914;-63
2022/01/29 06:58:33;;;;;;;;;20.00;13.25;;;;;8.48;74.11;102501.38;4997262;28;45405;-61
2022/01/29 07:00:58;;;;;;;;;24.75;21.25;;;;;8.49;74.44;102510.09;4996407;28;64849;-60
2022/01/29 07:03:24;;;;;;;;;15.25;14.75;;;;;8.51;74.43;102508.25;4997176;28;45282;-62
2022/01/29 07:05:49;;;;;;;;;17.50;15.75;;;;;8.51;74.43;102514.38;4996518;28;65961;-63
2022/01/29 07:08:15;;;;;;;;;20.75;19.75;;;;;8.52;74.44;102509.94;4997191;28;45300;-61
2022/01/29 07:10:40;;;;;;;;;22.50;20.00;;;;;8.52;74.38;102504.72;4979061;28;45267;-61
2022/01/29 07:13:06;;;;;;;;;26.50;20.25;;;;;8.53;74.43;102504.66;4997196;28;45223;-62
2022/01/29 07:15:32;;;;;;;;;28.50;23.75;;;;;8.55;74.07;102509.81;4997072;28;45238;-61
2022/01/29 07:17:57;;;;;;;;;21.50;19.25;;;;;8.54;74.35;102508.09;4995692;28;67657;-61
2022/01/29 07:20:22;;;;;;;;;23.00;18.25;;;;;8.54;74.23;102505.50;4997081;28;45179;-62
2022/01/29 07:22:48;;;;;;;;;23.50;21.00;;;;;8.56;74.17;102506.25;4996757;28;54623;-61
2022/01/29 07:25:14;;;;;;;;;23.75;19.75;;;;;8.57;74.38;102507.97;4997185;28;45241;-61
2022/01/29 07:27:39;;;;;;;;;26.50;23.75;;;;;8.59;74.11;102506.13;4962990;28;46144;-61
2022/01/29 07:30:05;;;;;;;;;18.75;17.75;;;;;8.59;74.22;102506.13;4996516;28;55147;-61
2022/01/29 07:32:31;;;;;;;;;18.25;17.00;;;;;8.61;74.00;102504.28;4996914;28;45436;-61
2022/01/29 07:34:57;;;;;;;;;20.50;18.00;;;;;8.61;74.04;102499.03;4996993;28;45409;-60
2022/01/29 07:37:22;;;;;;;;;21.00;17.25;;;;;8.62;74.12;102505.97;4996767;28;46227;-62
2022/01/29 07:39:47;;;;;;;;;36.50;33.00;;;;;8.63;74.04;102501.59;4996947;28;45369;-62
2022/01/29 07:42:13;;;;;;;;;26.00;20.00;;;;;8.63;74.15;102509.47;4996917;28;45391;-60
2022/01/29 07:44:38;;;;;;;;;19.50;18.75;;;;;8.63;74.26;102509.47;4996519;28;48189;-62
2022/01/29 07:47:04;;;;;;;;;20.00;16.50;;;;;8.64;74.16;102513.78;4996517;28;45269;-61
2022/01/29 07:49:29;;;;;;;;;17.00;15.50;;;;;8.64;74.27;102512.00;4996574;28;45356;-62
2022/01/29 07:51:55;;;;;;;;;18.25;14.75;;;;;8.67;74.29;102516.25;4996671;28;45327;-62
2022/01/29 07:54:20;;;;;;;;;19.75;18.25;;;;;8.67;74.30;102509.22;4978319;28;52569;-63
2022/01/29 07:56:45;;;;;;;;;21.50;17.75;;;;;8.69;74.08;102507.38;4996239;28;48636;-61
2022/01/29 07:59:11;;;;;;;;;21.00;17.50;;;;;8.71;74.07;102510.78;4995514;28;67298;-62
2022/01/29 08:01:36;;;;;;;;;22.50;19.00;;;;;8.71;73.92;102500.28;4995668;28;58502;-62
2022/01/29 08:04:02;;;;;;;;;15.00;13.00;;;;;8.74;74.02;102510.63;4961760;28;51494;-61
2022/01/29 08:06:29;;;;;;;;;20.75;18.25;;;;;8.74;74.37;102505.38;4996016;28;46215;-60
2022/01/29 08:08:54;;;;;;;;;29.00;27.75;;;;;8.75;74.29;102495.72;4978702;28;45548;-62
2022/01/29 08:11:20;;;;;;;;;25.50;21.75;;;;;8.78;74.37;102494.75;4996222;28;45325;-61
2022/01/29 08:13:48;;;;;;;;;28.00;23.75;;;;;8.80;74.29;102504.22;4978088;28;45457;-62
2022/01/29 08:16:14;;;;;;;;;26.75;24.00;;;;;8.82;74.45;102497.13;4995800;28;46189;-61
2022/01/29 08:18:42;;;;;;;;;28.75;26.50;;;;;8.86;74.49;102497.84;4994697;28;46074;-62
2022/01/29 08:21:07;;;;;;;;;23.75;21.25;;;;;8.88;74.38;102501.22;4996467;28;45374;-61
2022/01/29 08:23:33;;;;;;;;;35.25;29.75;;;;;8.90;74.42;102494.97;4999698;28;45445;-61
2022/01/29 08:25:58;;;;;;;;;20.00;19.75;;;;;8.94;74.44;102500.06;4998704;28;73790;-62
2022/01/29 08:28:24;;;;;;;;;19.50;16.25;;;;;8.98;74.65;102496.38;4999462;28;53430;-62
2022/01/29 08:30:49;;;;;;;;;21.25;18.50;;;;;9.00;74.61;102498.00;4998950;28;56409;-62
2022/01/29 08:33:18;;;;;;;;;20.00;17.25;;;;;9.03;74.88;102495.19;4999509;28;45349;-60
2022/01/29 08:35:44;;;;;;;;;32.50;26.00;;;;;9.06;74.80;102497.66;4999189;28;46446;-61
2022/01/29 08:38:10;;;;;;;;;43.50;34.25;;;;;9.09;74.64;102493.19;4981915;28;45346;-61
2022/01/29 08:40:35;;;;;;;;;18.75;16.25;;;;;9.12;74.73;102490.41;4998856;28;60889;-62
2022/01/29 08:43:00;;;;;;;;;20.25;17.00;;;;;9.13;74.72;102495.59;4998706;28;63831;-62
2022/01/29 08:45:26;;;;;;;;;21.25;17.25;;;;;9.16;74.62;102497.22;4980917;28;69325;-62
2022/01/29 08:47:51;;;;;;;;;18.25;17.50;;;;;9.17;74.67;102491.03;4999196;28;46754;-60
2022/01/29 08:50:16;;;;;;;;;18.75;15.00;;;;;9.19;74.43;102481.31;4998715;28;61920;-61
2022/01/29 08:52:42;;;;;;;;;20.75;17.50;;;;;9.20;74.65;102489.13;4997974;28;66242;-60
2022/01/29 08:55:08;;;;;;;;;13.75;12.75;;;;;9.23;75.07;102485.47;4999063;28;45675;-61
2022/01/29 08:57:33;;;;;;;;;9.25;8.00;;;;;9.26;74.53;102487.94;4998435;28;45223;-61
2022/01/29 09:00:00;;;;;;;;;8.25;7.00;;;;;9.29;74.65;102487.78;4998904;28;56095;-62
2022/01/29 09:02:25;;;;;;;;;8.50;7.00;;;;;9.33;74.90;102481.47;4999231;28;45364;-62
2022/01/29 09:04:52;;;;;;;;;4.50;4.50;;;;;9.35;74.72;102484.84;4999178;28;45459;-62
2022/01/29 09:07:18;;;;;;;;;6.00;4.00;;;;;9.39;74.81;102485.53;4999004;28;45479;-61
2022/01/29 09:09:45;;;;;;;;;5.00;5.00;;;;;9.43;74.67;102491.47;4980886;28;63132;-62
2022/01/29 09:12:11;;;;;;;;;5.50;5.50;;;;;9.47;74.57;102487.75;4999229;28;45564;-62
2022/01/29 09:14:37;;;;;;;;;4.00;4.00;;;;;9.49;74.33;102481.50;4998727;28;46288;-62
2022/01/29 09:17:02;;;;;;;;;4.00;4.00;;;;;9.52;74.55;102488.38;4998145;28;66721;-61
2022/01/29 09:19:28;;;;;;;;;4.00;4.00;;;;;9.55;74.03;102482.94;4998995;28;45318;-62
2022/01/29 09:21:53;;;;;;;;;4.00;4.00;;;;;9.57;74.14;102488.94;4998958;28;46899;-61
2022/01/29 09:24:18;;;;;;;;;3.50;3.50;;;;;9.60;73.92;102482.72;4998135;28;66667;-62
2022/01/29 09:26:44;;;;;;;;;4.00;4.00;;;;;9.64;74.08;102484.25;4998737;28;45350;-63
2022/01/29 09:29:09;;;;;;;;;3.00;3.00;;;;;9.67;74.10;102485.84;4981567;28;64300;-63
2022/01/29 09:31:34;;;;;;;;;4.25;4.00;;;;;9.69;73.99;102481.34;4981348;28;62052;-61
2022/01/29 09:34:00;;;;;;;;;5.00;4.00;;;;;9.71;73.75;102479.50;4998850;28;45425;-62
2022/01/29 09:36:25;;;;;;;;;4.25;3.75;;;;;9.74;74.48;102471.47;4998909;28;45253;-61
2022/01/29 09:38:51;;;;;;;;;3.00;3.00;;;;;9.74;73.93;102459.19;4998175;28;67109;-62
2022/01/29 09:41:18;;;;;;;;;3.00;3.00;;;;;9.77;73.84;102459.03;4981570;28;45480;-62
2022/01/29 09:43:46;;;;;;;;;4.25;4.25;;;;;9.81;73.96;102454.44;4965488;28;45366;-65
2022/01/29 09:46:12;;;;;;;;;4.25;3.25;;;;;9.85;73.64;102460.38;4998896;28;45899;-62
2022/01/29 09:48:38;;;;;;;;;3.25;3.00;;;;;9.89;73.61;102459.28;4965326;28;45340;-61
2022/01/29 09:51:09;;;;;;;;;4.25;3.25;;;;;9.92;73.87;102462.59;4981653;28;45560;-63
2022/01/29 09:53:35;;;;;;;;;3.00;3.00;;;;;9.95;73.46;102462.44;4966594;28;46175;-61
2022/01/29 09:56:00;;;;;;;;;3.00;3.00;;;;;9.99;73.51;102467.50;4997621;28;72530;-61
2022/01/29 09:58:26;;;;;;;;;2.25;2.25;;;;;10.04;73.30;102465.47;4998787;28;45191;-62
2022/01/29 10:00:51;;;;;;;;;6.25;6.00;;;;;10.07;73.11;102474.03;4998648;28;45466;-61
2022/01/29 10:03:17;;;;;;;;;4.50;4.50;;;;;10.12;72.99;102473.75;4998855;28;45396;-62
2022/01/29 10:05:44;;;;;;;;;3.25;3.25;;;;;10.16;72.90;102474.44;4998579;28;45812;-63
2022/01/29 10:08:10;;;;;;;;;4.00;4.00;;;;;10.21;72.89;102477.69;4998392;28;45476;-62
2022/01/29 10:10:45;;;;;;;;;5.00;5.00;;;;;10.25;72.38;102481.81;4980699;28;45620;-63
2022/01/29 10:13:40;;;;;;;;;4.25;3.25;;;;;10.28;72.16;102486.03;4980432;28;45476;-62
2022/01/29 10:16:23;;;;;;;;;4.00;3.50;;;;;10.29;72.41;102479.84;4980488;28;45918;-62
2022/01/29 10:19:03;;;;;;;;;5.00;5.00;;;;;10.31;72.24;102485.88;4996705;28;45362;-63
2022/01/29 10:21:30;;;;;;;;;5.50;5.50;;;;;10.31;72.06;102488.50;4996995;28;45453;-61
2022/01/29 10:24:08;;;;;;;;;5.00;4.00;;;;;10.32;72.18;102480.56;4980297;28;46577;-61
2022/01/29 10:26:38;;;;;;;;;5.75;4.25;;;;;10.34;72.42;102480.44;4997996;28;45938;-61
2022/01/29 10:29:08;;;;;;;;;8.00;5.75;;;;;10.35;72.35;102484.78;4998013;28;45309;-62
2022/01/29 10:31:46;;;;;;;;;4.50;3.00;;;;;10.37;71.95;102472.41;4980263;28;45260;-63
2022/01/29 10:34:30;;;;;;;;;6.00;4.00;;;;;10.38;72.18;102474.09;4997880;28;45346;-61
2022/01/29 10:37:17;;;;;;;;;4.25;4.25;;;;;10.38;71.91;102480.19;4997457;28;46208;-61
2022/01/29 10:39:51;;;;;;;;;7.25;5.25;;;;;10.40;72.26;102472.25;4997716;28;45349;-63
2022/01/29 10:42:19;;;;;;;;;4.00;4.00;;;;;10.42;71.96;102466.91;4979485;28;49095;-62
2022/01/29 10:44:46;;;;;;;;;4.75;4.00;;;;;10.43;72.12;102469.47;4996852;28;46095;-61
2022/01/29 10:47:11;;;;;;;;;6.00;3.25;;;;;10.46;72.01;102469.28;4997644;28;45794;-63
2022/01/29 10:49:44;;;;;;;;;3.00;3.00;;;;;10.49;72.03;102477.00;4996346;28;66608;-62
2022/01/29 10:52:10;;;;;;;;;4.50;4.50;;;;;10.50;71.53;102473.44;4998006;28;45276;-62
2022/01/29 10:54:37;;;;;;;;;3.25;3.25;;;;;10.53;71.46;102478.50;4963596;28;45506;-63
2022/01/29 10:57:10;;;;;;;;;4.00;4.00;;;;;10.55;71.51;102478.41;4997518;28;45916;-62
2022/01/29 10:59:48;;;;;;;;;3.50;3.50;;;;;10.59;71.43;102476.47;4979715;28;45251;-61
2022/01/29 11:02:14;;;;;;;;;4.00;3.25;;;;;10.60;71.42;102475.53;4997462;28;45598;-61
2022/01/29 11:04:40;;;;;;;;;6.25;4.50;;;;;10.62;71.33;102477.13;4997281;28;45493;-63
2022/01/29 11:07:12;;;;;;;;;28.50;24.00;;;;;10.65;71.09;102468.19;4979165;28;45475;-61
2022/01/29 11:09:40;;;;;;;;;6.00;4.75;;;;;10.66;71.00;102477.78;4997415;28;45188;-61
2022/01/29 11:12:05;;;;;;;;;3.25;2.75;;;;;10.67;71.15;102476.84;4963549;28;45393;-62
2022/01/29 11:14:31;;;;;;;;;2.75;2.75;;;;;10.69;71.21;102482.88;4963180;28;45385;-61
2022/01/29 11:16:58;;;;;;;;;4.00;4.00;;;;;10.71;71.40;102483.63;4996969;28;45899;-62
2022/01/29 11:19:23;;;;;;;;;6.00;5.25;;;;;10.72;70.91;102477.44;4963622;28;45406;-62
2022/01/29 11:21:51;;;;;;;;;7.00;7.00;;;;;10.74;71.04;102477.38;4997034;28;45401;-61
2022/01/29 11:24:17;;;;;;;;;5.25;5.00;;;;;10.76;71.07;102475.50;4979526;28;45504;-62
2022/01/29 11:26:45;;;;;;;;;3.50;3.50;;;;;10.77;71.47;102477.19;4979641;28;45872;-61
2022/01/29 11:29:33;;;;;;;;;6.25;5.00;;;;;10.79;71.01;102478.78;4979765;28;45419;-63
2022/01/29 11:32:28;;;;;;;;;6.00;4.00;;;;;10.80;71.12;102469.94;4979564;28;45442;-62